Irini — SYZA — position and weather

sailwx.info

Track history (hours):
 
Tides and Currents Weather Stations Pressure Air Temp Water Temp Dewpoint Dewpoint Depression Visibility Wind Speed Wind Dir Waves Ship Positions

Irini

Last reported at 2016-Sep-26 13:07 UTC. Time now 2016-Sep-29 15:20 UTC.
Position N 37°16' E 023°39'.

Length 137 m; draft 7.3 m.

Type: Ship (hazmat cat A). MMSI: 240052000.

Date/timePositionNaut miles runAvg speedWind from/ knotsBaromVisibWave heightAir tempDewpointWater temp
2016-Sep-26 13:07N 37°16' E 023°39'1911.9
2016-Sep-26 11:33N 37°35' E 023°42'27 9.1
2016-Sep-26 08:34N 38°01' E 023°32'1 0.2
2016-Sep-26 02:32N 38°02' E 023°31'0 0.0
2016-Sep-26 01:32N 38°02' E 023°31'0 0.0
2016-Sep-26 00:32N 38°02' E 023°31'0 0.0
2016-Sep-25 21:29N 38°02' E 023°31'0 0.0
2016-Sep-25 17:29N 38°02' E 023°31'0 0.0
2016-Sep-25 16:29N 38°02' E 023°31'0 0.0
2016-Sep-25 15:32N 38°02' E 023°31'0 0.0
2016-Sep-25 14:32N 38°02' E 023°31'0 0.0
2016-Sep-25 12:26N 38°02' E 023°31'0 0.0
2016-Sep-25 11:29N 38°02' E 023°31'0 0.0
2016-Sep-25 10:26N 38°02' E 023°31'0 0.0
2016-Sep-25 09:32N 38°02' E 023°31'0 0.0
2016-Sep-25 07:32N 38°02' E 023°31'0 0.0
2016-Sep-25 04:26N 38°02' E 023°31'0 0.0
2016-Sep-25 00:32N 38°02' E 023°31'0 0.0
2016-Sep-24 22:32N 38°02' E 023°31'0 0.0
2016-Sep-24 21:32N 38°02' E 023°31'0 0.0
2016-Sep-24 19:32N 38°02' E 023°31'0 0.0
2016-Sep-24 18:32N 38°02' E 023°31'0 0.1
2016-Sep-24 17:33N 38°02' E 023°31'1 0.7
2016-Sep-24 16:32N 38°02' E 023°31'3 1.7
2016-Sep-24 14:31N 38°02' E 023°36'0 0.0
2016-Sep-24 12:31N 38°02' E 023°36'0 0.0
2016-Sep-24 10:28N 38°02' E 023°36'0 0.0
2016-Sep-24 09:32N 38°02' E 023°36'0 0.0
2016-Sep-24 03:32N 38°02' E 023°36'0 0.0
2016-Sep-24 02:32N 38°02' E 023°36'0 0.0
2016-Sep-24 01:32N 38°01' E 023°36'0 0.0
2016-Sep-24 00:26N 38°02' E 023°36'0 0.0
2016-Sep-23 19:32N 38°02' E 023°36'0 0.0
2016-Sep-23 17:32N 38°02' E 023°36'0 0.0
2016-Sep-23 16:29N 38°02' E 023°36'2 2.6
2016-Sep-23 15:33N 37°60' E 023°33'2110.4
2016-Sep-23 13:33N 37°41' E 023°45'157 9.1
2016-Sep-22 20:21N 40°14' E 022°54'25 1.2
2016-Sep-22 00:30N 40°38' E 022°53'0 0.0
2016-Sep-21 23:33N 40°38' E 022°53'0 0.0
2016-Sep-21 22:33N 40°38' E 022°53'0 0.0
2016-Sep-21 19:33N 40°38' E 022°53'0 0.0
2016-Sep-21 16:24N 40°38' E 022°53'178 6.9
2016-Sep-20 14:33N 37°44' E 023°41'1111.5
2016-Sep-20 13:33N 37°55' E 023°36'9 2.9
2016-Sep-20 10:33N 38°02' E 023°31'0 0.0
2016-Sep-20 08:33N 38°02' E 023°31'0 0.0
2016-Sep-20 07:33N 38°02' E 023°31'0 0.0
2016-Sep-20 06:33N 38°02' E 023°31'0 0.0
2016-Sep-20 02:33N 38°02' E 023°31'0 0.0
2016-Sep-19 23:33N 38°02' E 023°31'0 0.0
2016-Sep-19 19:33N 38°02' E 023°31'0 0.0
2016-Sep-19 18:33N 38°02' E 023°31'0 0.0
2016-Sep-19 16:33N 38°02' E 023°31'0 0.0
2016-Sep-19 14:33N 38°02' E 023°31'0 0.0
2016-Sep-19 13:33N 38°02' E 023°31'0 0.0
2016-Sep-19 12:33N 38°02' E 023°31'0 0.0
2016-Sep-19 11:33N 38°02' E 023°31'0 0.0
2016-Sep-19 09:33N 38°02' E 023°31'0 0.0
2016-Sep-19 07:33N 38°02' E 023°31'0 0.0
2016-Sep-19 06:33N 38°02' E 023°31'0 0.0
2016-Sep-19 03:33N 38°02' E 023°31'0 0.0
2016-Sep-19 02:33N 38°02' E 023°31'0 0.0
2016-Sep-19 00:33N 38°02' E 023°31'0 0.0
2016-Sep-18 19:33N 38°02' E 023°31'1 0.2
2016-Sep-18 15:32N 38°02' E 023°31'0 0.0
2016-Sep-18 14:32N 38°02' E 023°31'0 0.0
2016-Sep-18 10:32N 38°02' E 023°31'0 0.0
2016-Sep-18 09:32N 38°02' E 023°31'36 5.1
2016-Sep-18 02:30N 37°37' E 024°04'1111.2
2016-Sep-18 01:33N 37°43' E 024°15'1211.7
2016-Sep-18 00:33N 37°50' E 024°26'3110.1
2016-Sep-17 21:27N 38°21' E 024°30'14211.6
2016-Sep-17 09:14N 40°20' E 022°48'911.8
2016-Sep-17 08:31N 40°28' E 022°45'1111.5
2016-Sep-17 07:33N 40°36' E 022°55'1 0.4
2016-Sep-17 05:33N 40°37' E 022°54'1 1.3
2016-Sep-17 04:25N 40°38' E 022°53'0 0.0
2016-Sep-17 00:28N 40°38' E 022°53'0 0.0
2016-Sep-16 17:31N 40°38' E 022°53'0 0.0
2016-Sep-16 15:22N 40°38' E 022°53'  
Track history (hours):
 
Tides and Currents Weather Stations Pressure Air Temp Water Temp Dewpoint Dewpoint Depression Visibility Wind Speed Wind Dir Waves Ship Positions

Irini

Last reported at 2016-Sep-26 13:07 UTC. Time now 2016-Sep-29 15:20 UTC.
Position N 37°16' E 023°39'.

Length 137 m; draft 7.3 m.

Type: Ship (hazmat cat A). MMSI: 240052000.

Date/timePositionNaut miles runAvg speedWind from/ knotsBaromVisibWave heightAir tempDewpointWater temp
2016-Sep-26 13:07N 37°16' E 023°39'1911.9
2016-Sep-26 11:33N 37°35' E 023°42'27 9.1
2016-Sep-26 08:34N 38°01' E 023°32'1 0.2
2016-Sep-26 02:32N 38°02' E 023°31'0 0.0
2016-Sep-26 01:32N 38°02' E 023°31'0 0.0
2016-Sep-26 00:32N 38°02' E 023°31'0 0.0
2016-Sep-25 21:29N 38°02' E 023°31'0 0.0
2016-Sep-25 17:29N 38°02' E 023°31'0 0.0
2016-Sep-25 16:29N 38°02' E 023°31'0 0.0
2016-Sep-25 15:32N 38°02' E 023°31'0 0.0
2016-Sep-25 14:32N 38°02' E 023°31'0 0.0
2016-Sep-25 12:26N 38°02' E 023°31'0 0.0
2016-Sep-25 11:29N 38°02' E 023°31'0 0.0
2016-Sep-25 10:26N 38°02' E 023°31'0 0.0
2016-Sep-25 09:32N 38°02' E 023°31'0 0.0
2016-Sep-25 07:32N 38°02' E 023°31'0 0.0
2016-Sep-25 04:26N 38°02' E 023°31'0 0.0
2016-Sep-25 00:32N 38°02' E 023°31'0 0.0
2016-Sep-24 22:32N 38°02' E 023°31'0 0.0
2016-Sep-24 21:32N 38°02' E 023°31'0 0.0
2016-Sep-24 19:32N 38°02' E 023°31'0 0.0
2016-Sep-24 18:32N 38°02' E 023°31'0 0.1
2016-Sep-24 17:33N 38°02' E 023°31'1 0.7
2016-Sep-24 16:32N 38°02' E 023°31'3 1.7
2016-Sep-24 14:31N 38°02' E 023°36'0 0.0
2016-Sep-24 12:31N 38°02' E 023°36'0 0.0
2016-Sep-24 10:28N 38°02' E 023°36'0 0.0
2016-Sep-24 09:32N 38°02' E 023°36'0 0.0
2016-Sep-24 03:32N 38°02' E 023°36'0 0.0
2016-Sep-24 02:32N 38°02' E 023°36'0 0.0
2016-Sep-24 01:32N 38°01' E 023°36'0 0.0
2016-Sep-24 00:26N 38°02' E 023°36'0 0.0
2016-Sep-23 19:32N 38°02' E 023°36'0 0.0
2016-Sep-23 17:32N 38°02' E 023°36'0 0.0
2016-Sep-23 16:29N 38°02' E 023°36'2 2.6
2016-Sep-23 15:33N 37°60' E 023°33'2110.4
2016-Sep-23 13:33N 37°41' E 023°45'157 9.1
2016-Sep-22 20:21N 40°14' E 022°54'25 1.2
2016-Sep-22 00:30N 40°38' E 022°53'0 0.0
2016-Sep-21 23:33N 40°38' E 022°53'0 0.0
2016-Sep-21 22:33N 40°38' E 022°53'0 0.0
2016-Sep-21 19:33N 40°38' E 022°53'0 0.0
2016-Sep-21 16:24N 40°38' E 022°53'178 6.9
2016-Sep-20 14:33N 37°44' E 023°41'1111.5
2016-Sep-20 13:33N 37°55' E 023°36'9 2.9
2016-Sep-20 10:33N 38°02' E 023°31'0 0.0
2016-Sep-20 08:33N 38°02' E 023°31'0 0.0
2016-Sep-20 07:33N 38°02' E 023°31'0 0.0
2016-Sep-20 06:33N 38°02' E 023°31'0 0.0
2016-Sep-20 02:33N 38°02' E 023°31'0 0.0
2016-Sep-19 23:33N 38°02' E 023°31'0 0.0
2016-Sep-19 19:33N 38°02' E 023°31'0 0.0
2016-Sep-19 18:33N 38°02' E 023°31'0 0.0
2016-Sep-19 16:33N 38°02' E 023°31'0 0.0
2016-Sep-19 14:33N 38°02' E 023°31'0 0.0
2016-Sep-19 13:33N 38°02' E 023°31'0 0.0
2016-Sep-19 12:33N 38°02' E 023°31'0 0.0
2016-Sep-19 11:33N 38°02' E 023°31'0 0.0
2016-Sep-19 09:33N 38°02' E 023°31'0 0.0
2016-Sep-19 07:33N 38°02' E 023°31'0 0.0
2016-Sep-19 06:33N 38°02' E 023°31'0 0.0
2016-Sep-19 03:33N 38°02' E 023°31'0 0.0
2016-Sep-19 02:33N 38°02' E 023°31'0 0.0
2016-Sep-19 00:33N 38°02' E 023°31'0 0.0
2016-Sep-18 19:33N 38°02' E 023°31'1 0.2
2016-Sep-18 15:32N 38°02' E 023°31'0 0.0
2016-Sep-18 14:32N 38°02' E 023°31'0 0.0
2016-Sep-18 10:32N 38°02' E 023°31'0 0.0
2016-Sep-18 09:32N 38°02' E 023°31'36 5.1
2016-Sep-18 02:30N 37°37' E 024°04'1111.2
2016-Sep-18 01:33N 37°43' E 024°15'1211.7
2016-Sep-18 00:33N 37°50' E 024°26'3110.1
2016-Sep-17 21:27N 38°21' E 024°30'14211.6
2016-Sep-17 09:14N 40°20' E 022°48'911.8
2016-Sep-17 08:31N 40°28' E 022°45'1111.5
2016-Sep-17 07:33N 40°36' E 022°55'1 0.4
2016-Sep-17 05:33N 40°37' E 022°54'1 1.3
2016-Sep-17 04:25N 40°38' E 022°53'0 0.0
2016-Sep-17 00:28N 40°38' E 022°53'0 0.0
2016-Sep-16 17:31N 40°38' E 022°53'0 0.0
2016-Sep-16 15:22N 40°38' E 022°53'  

Dump ship's entire track history